createdAt,value
2023-05-15T00:01:12.631Z,99734.53
2023-05-15T00:04:14.680Z,99737.13
2023-05-15T00:07:16.634Z,99736.03
2023-05-15T00:10:18.499Z,99737.28
2023-05-15T00:13:20.449Z,99738.88
2023-05-15T00:16:22.368Z,99730.06
2023-05-15T00:19:24.435Z,99724.91
2023-05-15T00:22:26.422Z,99732.78
2023-05-15T00:25:28.515Z,99734.75
2023-05-15T00:28:30.656Z,99742.81
2023-05-15T00:31:33.605Z,99751.53
2023-05-15T00:34:38.078Z,99751.22
2023-05-15T00:37:40.253Z,99758.16
2023-05-15T00:40:42.708Z,99751.59
2023-05-15T00:43:44.545Z,99748.72
2023-05-15T00:46:46.828Z,99743.47
2023-05-15T00:49:49.377Z,99736.13
2023-05-15T00:52:51.309Z,99734.75
2023-05-15T00:55:54.913Z,99730.84
2023-05-15T00:58:56.806Z,99729.22
2023-05-15T01:01:58.673Z,99737.53
2023-05-15T01:05:00.879Z,99718.87
2023-05-15T01:08:18.154Z,99724.59
2023-05-15T01:11:20.070Z,99722.34
2023-05-15T01:14:21.917Z,99708.28
2023-05-15T01:17:23.787Z,99708.94
2023-05-15T01:20:25.837Z,99698.84
2023-05-15T01:23:33.876Z,99705.59
2023-05-15T01:26:41.760Z,99711.22
2023-05-15T01:29:56.613Z,99702.75
2023-05-15T01:33:17.483Z,99696.19
2023-05-15T01:36:22.028Z,99695.34
2023-05-15T01:39:26.179Z,99699.62
2023-05-15T01:42:30.831Z,99700.22
2023-05-15T01:45:32.809Z,99700.34
2023-05-15T01:48:36.346Z,99693.97
2023-05-15T01:51:38.150Z,99669.94
2023-05-15T01:54:40.281Z,99661.47
2023-05-15T01:57:42.386Z,99656.31
2023-05-15T02:00:44.384Z,99653.59
2023-05-15T02:03:46.744Z,99653.94
2023-05-15T02:06:50.358Z,99658.09
2023-05-15T02:09:53.159Z,99668.78
2023-05-15T02:12:55.071Z,99669.62
2023-05-15T02:15:57.136Z,99680.16
2023-05-15T02:18:59.018Z,99693.12
2023-05-15T02:22:00.974Z,99689.50
2023-05-15T02:25:02.955Z,99684.53
2023-05-15T02:28:04.895Z,99695.91
2023-05-15T02:31:08.850Z,99710.38
2023-05-15T02:34:31.024Z,99698.16
2023-05-15T02:37:34.237Z,99717.13
2023-05-15T02:40:36.511Z,99728.47
2023-05-15T02:43:38.468Z,99715.53
2023-05-15T02:46:41.526Z,99708.47
2023-05-15T02:49:43.383Z,99715.78
2023-05-15T02:52:45.371Z,99715.62
2023-05-15T02:55:47.260Z,99701.91
2023-05-15T02:58:49.731Z,99696.53
2023-05-15T03:01:51.626Z,99709.25
2023-05-15T03:04:54.403Z,99705.41
2023-05-15T03:07:57.235Z,99687.31
2023-05-15T03:10:59.346Z,99689.09
2023-05-15T03:14:01.207Z,99686.72
2023-05-15T03:17:03.590Z,99694.06
2023-05-15T03:20:05.938Z,99692.81
2023-05-15T03:23:07.759Z,99672.63
2023-05-15T03:26:09.631Z,99660.81
2023-05-15T03:29:11.531Z,99664.75
2023-05-15T03:32:13.486Z,99654.16
2023-05-15T03:35:15.378Z,99648.50
2023-05-15T03:38:19.405Z,99636.13
2023-05-15T03:41:21.520Z,99617.34
2023-05-15T03:44:23.412Z,99623.56
2023-05-15T03:47:25.476Z,99640.53
2023-05-15T03:50:27.450Z,99634.22
2023-05-15T03:53:29.321Z,99628.03
2023-05-15T03:56:31.866Z,99608.59
2023-05-15T03:59:33.858Z,99627.84
2023-05-15T04:02:36.079Z,99632.56
2023-05-15T04:05:37.997Z,99627.94
2023-05-15T04:08:40.993Z,99618.34
2023-05-15T04:11:44.055Z,99626.63
2023-05-15T04:14:45.855Z,99614.28
2023-05-15T04:17:48.327Z,99606.06
2023-05-15T04:20:50.320Z,99615.88
2023-05-15T04:23:52.254Z,99608.59
2023-05-15T04:26:54.238Z,99618.84
2023-05-15T04:30:01.660Z,99620.19
2023-05-15T04:33:03.726Z,99615.28
2023-05-15T04:36:09.835Z,99607.69
2023-05-15T04:39:12.638Z,99609.75
2023-05-15T04:42:14.471Z,99620.41
2023-05-15T04:45:16.450Z,99628.00
2023-05-15T04:48:19.283Z,99629.75
2023-05-15T04:51:21.174Z,99630.72
2023-05-15T04:54:23.130Z,99639.75
2023-05-15T04:57:26.033Z,99638.22
2023-05-15T05:00:28.444Z,99650.37
2023-05-15T05:03:30.436Z,99677.66
2023-05-15T05:06:32.296Z,99674.28
2023-05-15T05:09:34.630Z,99678.31
2023-05-15T05:12:36.655Z,99675.78
2023-05-15T05:15:38.576Z,99682.53
2023-05-15T05:18:40.936Z,99675.94
2023-05-15T05:21:42.813Z,99678.19
2023-05-15T05:24:44.734Z,99691.97
2023-05-15T05:27:46.601Z,99693.22
2023-05-15T05:30:48.668Z,99691.31
2023-05-15T05:33:52.814Z,99687.56
2023-05-15T05:36:54.843Z,99686.66
2023-05-15T05:39:56.978Z,99678.59
2023-05-15T05:43:00.333Z,99664.31
2023-05-15T05:46:02.493Z,99676.38
2023-05-15T05:49:04.486Z,99673.06
2023-05-15T05:52:09.412Z,99680.50
2023-05-15T05:55:11.594Z,99691.09
2023-05-15T05:58:18.362Z,99690.16
2023-05-15T06:01:27.013Z,99698.94
2023-05-15T06:04:29.614Z,99707.38
2023-05-15T06:07:31.702Z,99699.22
2023-05-15T06:10:33.725Z,99691.13
2023-05-15T06:13:36.057Z,99693.75
2023-05-15T06:16:38.038Z,99697.19
2023-05-15T06:19:40.372Z,99691.09
2023-05-15T06:22:42.576Z,99708.28
2023-05-15T06:25:44.773Z,99720.31
2023-05-15T06:28:46.708Z,99719.78
2023-05-15T06:31:48.667Z,99721.53
2023-05-15T06:34:50.836Z,99721.72
2023-05-15T06:37:56.596Z,99716.50
2023-05-15T06:41:00.520Z,99708.91
2023-05-15T06:44:02.449Z,99718.16
2023-05-15T06:47:06.010Z,99699.34
2023-05-15T06:50:08.206Z,99687.25
2023-05-15T06:53:11.333Z,99678.44
2023-05-15T06:56:14.301Z,99674.91
2023-05-15T06:59:16.193Z,99676.41
2023-05-15T07:02:18.157Z,99675.75
2023-05-15T07:05:21.866Z,99683.63
2023-05-15T07:08:23.999Z,99687.75
2023-05-15T07:11:26.164Z,99688.94
2023-05-15T07:14:28.846Z,99684.88
2023-05-15T07:17:31.884Z,99687.75
2023-05-15T07:20:36.378Z,99693.09
2023-05-15T07:23:38.839Z,99692.62
2023-05-15T07:26:50.289Z,99704.84
2023-05-15T07:29:59.277Z,99708.41
2023-05-15T07:33:01.491Z,99716.81
2023-05-15T07:36:04.208Z,99725.13
2023-05-15T07:39:06.163Z,99725.94
2023-05-15T07:42:13.961Z,99710.06
2023-05-15T07:45:16.872Z,99688.37
2023-05-15T07:48:21.371Z,99688.66
2023-05-15T07:51:26.281Z,99687.66
2023-05-15T07:54:28.341Z,99683.47
2023-05-15T07:57:31.920Z,99688.13
2023-05-15T08:00:34.009Z,99676.50
2023-05-15T08:03:36.503Z,99693.94
2023-05-15T08:06:44.414Z,99710.38
2023-05-15T08:09:46.477Z,99716.00
2023-05-15T08:12:51.923Z,99707.97
2023-05-15T08:15:54.038Z,99708.00
2023-05-15T08:19:01.503Z,99707.50
2023-05-15T08:22:03.670Z,99713.44
2023-05-15T08:25:07.129Z,99705.66
2023-05-15T08:28:09.007Z,99704.31
2023-05-15T08:31:11.294Z,99705.47
2023-05-15T08:34:13.247Z,99710.09
2023-05-15T08:37:15.137Z,99718.94
2023-05-15T08:40:25.625Z,99712.47
2023-05-15T08:43:37.243Z,99712.37
2023-05-15T08:46:39.247Z,99714.03
2023-05-15T08:50:01.023Z,99697.97
2023-05-15T08:53:02.904Z,99705.22
2023-05-15T08:56:04.944Z,99692.62
2023-05-15T08:59:06.982Z,99691.56
2023-05-15T09:02:09.029Z,99691.22
2023-05-15T09:05:11.479Z,99693.84
2023-05-15T09:08:13.438Z,99694.00
2023-05-15T09:11:16.069Z,99700.41
2023-05-15T09:14:18.589Z,99719.66
2023-05-15T09:17:21.141Z,99715.97
2023-05-15T09:20:33.594Z,99717.19
2023-05-15T09:23:35.602Z,99718.06
2023-05-15T09:26:41.294Z,99729.59
2023-05-15T09:29:43.142Z,99740.34
2023-05-15T09:32:45.222Z,99728.72
2023-05-15T09:35:47.512Z,99741.87
2023-05-15T09:38:49.868Z,99746.38
2023-05-15T09:41:52.163Z,99754.06
2023-05-15T09:44:54.036Z,99746.66
2023-05-15T09:47:57.786Z,99748.38
2023-05-15T09:50:59.839Z,99743.38
2023-05-15T09:54:01.919Z,99739.34
2023-05-15T09:57:10.508Z,99745.62
2023-05-15T10:00:14.997Z,99740.22
2023-05-15T10:03:19.092Z,99739.12
2023-05-15T10:06:21.319Z,99734.78
2023-05-15T10:09:23.299Z,99740.50
2023-05-15T10:12:25.500Z,99747.19
2023-05-15T10:15:30.392Z,99747.50
2023-05-15T10:18:33.146Z,99739.06
2023-05-15T10:21:36.422Z,99755.66
2023-05-15T10:24:40.860Z,99750.25
2023-05-15T10:27:43.283Z,99748.00
2023-05-15T10:30:45.244Z,99751.69
2023-05-15T10:33:55.927Z,99748.06
2023-05-15T10:37:00.956Z,99749.59
2023-05-15T10:40:02.984Z,99749.97
2023-05-15T10:43:05.678Z,99757.63
2023-05-15T10:46:07.604Z,99747.88
2023-05-15T10:49:12.814Z,99754.63
2023-05-15T10:52:18.017Z,99752.53
2023-05-15T10:55:20.807Z,99762.53
2023-05-15T10:58:23.330Z,99745.12
2023-05-15T11:01:29.234Z,99747.63
2023-05-15T11:04:31.732Z,99743.59
2023-05-15T11:07:33.961Z,99752.31
2023-05-15T11:10:39.469Z,99742.06
2023-05-15T11:14:00.695Z,99747.97
2023-05-15T11:17:06.938Z,99744.72
2023-05-15T11:20:09.438Z,99745.53
2023-05-15T11:23:13.682Z,99736.94
2023-05-15T11:26:17.814Z,99726.00
2023-05-15T11:29:19.800Z,99722.75
2023-05-15T11:32:40.745Z,99727.47
2023-05-15T11:35:43.316Z,99724.31
2023-05-15T11:38:45.403Z,99716.44
2023-05-15T11:41:49.501Z,99727.91
2023-05-15T11:44:51.469Z,99723.62
2023-05-15T11:47:53.470Z,99719.25
2023-05-15T11:50:55.477Z,99719.94
2023-05-15T11:53:57.689Z,99718.44
2023-05-15T11:56:59.769Z,99710.13
2023-05-15T12:00:01.840Z,99706.00
2023-05-15T12:03:04.152Z,99723.50
2023-05-15T12:06:09.015Z,99722.12
2023-05-15T12:09:15.044Z,99713.59
2023-05-15T12:12:17.632Z,99721.97
2023-05-15T12:15:20.062Z,99722.69
2023-05-15T12:18:22.407Z,99721.69
2023-05-15T12:21:28.682Z,99723.56
2023-05-15T12:24:30.814Z,99720.78
2023-05-15T12:27:32.780Z,99738.62
2023-05-15T12:30:37.418Z,99730.00
2023-05-15T12:33:39.309Z,99740.69
2023-05-15T12:36:41.670Z,99725.44
2023-05-15T12:39:50.865Z,99745.47
2023-05-15T12:42:56.569Z,99737.34
2023-05-15T12:45:58.664Z,99734.56
2023-05-15T12:49:01.106Z,99738.00
2023-05-15T12:52:10.028Z,99739.53
2023-05-15T12:55:15.781Z,99742.66
2023-05-15T12:58:19.380Z,99736.91
2023-05-15T13:01:21.982Z,99722.72
2023-05-15T13:04:24.268Z,99723.44
2023-05-15T13:07:26.560Z,99722.41
2023-05-15T13:10:29.079Z,99731.00
2023-05-15T13:14:00.724Z,99711.53
2023-05-15T13:17:03.377Z,99713.00
2023-05-15T13:20:06.087Z,99718.19
2023-05-15T13:23:08.381Z,99716.09
2023-05-15T13:26:10.464Z,99705.84
2023-05-15T13:29:12.733Z,99708.09
2023-05-15T13:32:14.851Z,99707.28
2023-05-15T13:35:17.436Z,99705.88
2023-05-15T13:38:19.278Z,99712.63
2023-05-15T13:41:21.273Z,99706.72
2023-05-15T13:44:23.185Z,99707.34
2023-05-15T13:47:29.300Z,99698.59
2023-05-15T13:50:31.278Z,99700.34
2023-05-15T13:53:33.258Z,99703.78
2023-05-15T13:56:35.460Z,99705.69
2023-05-15T13:59:37.543Z,99700.84
2023-05-15T14:02:40.108Z,99690.94
2023-05-15T14:05:42.477Z,99703.78
2023-05-15T14:08:46.637Z,99700.50
2023-05-15T14:12:40.802Z,99704.75
2023-05-15T14:15:43.317Z,99708.66
2023-05-15T14:18:45.880Z,99713.47
2023-05-15T14:21:48.105Z,99718.66
2023-05-15T14:24:50.725Z,99713.22
2023-05-15T14:27:53.147Z,99724.44
2023-05-15T14:30:55.519Z,99716.78
2023-05-15T14:33:59.230Z,99713.03
2023-05-15T14:37:01.284Z,99718.25
2023-05-15T14:40:05.231Z,99718.81
2023-05-15T14:43:07.706Z,99724.41
2023-05-15T14:46:11.403Z,99730.56
2023-05-15T14:49:20.234Z,99737.16
2023-05-15T14:52:24.662Z,99735.53
2023-05-15T14:55:27.162Z,99740.94
2023-05-15T14:58:29.317Z,99734.13
2023-05-15T15:01:31.448Z,99742.03
2023-05-15T15:04:36.217Z,99736.91
2023-05-15T15:07:58.516Z,99736.78
2023-05-15T15:11:01.976Z,99740.06
2023-05-15T15:14:04.082Z,99748.59
2023-05-15T15:17:08.184Z,99747.53
2023-05-15T15:20:11.676Z,99758.66
2023-05-15T15:23:13.738Z,99757.06
2023-05-15T15:26:18.652Z,99767.38
2023-05-15T15:29:20.628Z,99766.28
2023-05-15T15:32:22.901Z,99776.75
2023-05-15T15:35:25.837Z,99772.94
2023-05-15T15:38:28.695Z,99767.88
2023-05-15T15:41:33.103Z,99770.13
2023-05-15T15:44:35.127Z,99759.84
2023-05-15T15:47:37.225Z,99769.88
2023-05-15T15:50:41.356Z,99766.88
2023-05-15T15:53:43.368Z,99777.44
2023-05-15T15:56:45.835Z,99767.03
2023-05-15T15:59:48.197Z,99773.47
2023-05-15T16:02:50.939Z,99775.72
2023-05-15T16:05:52.967Z,99778.72
2023-05-15T16:08:55.102Z,99774.31
2023-05-15T16:11:57.720Z,99762.38
2023-05-15T16:15:06.878Z,99768.09
2023-05-15T16:18:15.802Z,99764.94
2023-05-15T16:21:17.752Z,99768.62
2023-05-15T16:24:19.684Z,99772.63
2023-05-15T16:27:21.819Z,99766.44
2023-05-15T16:30:33.446Z,99763.25
2023-05-15T16:33:46.552Z,99774.59
2023-05-15T16:36:49.939Z,99783.00
2023-05-15T16:39:51.995Z,99792.59
2023-05-15T16:42:54.256Z,99795.03
2023-05-15T16:45:56.512Z,99792.19
2023-05-15T16:48:58.536Z,99799.22
2023-05-15T16:52:00.569Z,99802.31
2023-05-15T16:55:03.506Z,99801.63
2023-05-15T16:58:05.729Z,99802.56
2023-05-15T17:01:09.944Z,99798.50
2023-05-15T17:04:12.105Z,99799.81
2023-05-15T17:07:14.233Z,99795.75
2023-05-15T17:10:16.239Z,99798.00
2023-05-15T17:13:18.237Z,99796.72
2023-05-15T17:16:20.238Z,99799.28
2023-05-15T17:19:22.280Z,99807.50
2023-05-15T17:22:24.358Z,99816.31
2023-05-15T17:25:26.665Z,99825.19
2023-05-15T17:28:28.777Z,99826.50
2023-05-15T17:31:30.861Z,99826.22
2023-05-15T17:34:32.934Z,99827.81
2023-05-15T17:37:34.913Z,99838.56
2023-05-15T17:40:36.803Z,99851.22
2023-05-15T17:43:41.017Z,99852.06
2023-05-15T17:46:43.307Z,99849.78
2023-05-15T17:49:45.578Z,99850.34
2023-05-15T17:52:47.648Z,99844.03
2023-05-15T17:55:49.556Z,99850.66
2023-05-15T17:58:51.481Z,99852.16
2023-05-15T18:01:53.369Z,99852.59
2023-05-15T18:04:56.297Z,99845.72
2023-05-15T18:07:59.672Z,99844.84
2023-05-15T18:11:08.541Z,99835.84
2023-05-15T18:14:16.190Z,99840.72
2023-05-15T18:17:18.187Z,99846.84
2023-05-15T18:20:20.106Z,99844.06
2023-05-15T18:23:22.087Z,99832.53
2023-05-15T18:26:25.818Z,99840.87
2023-05-15T18:29:27.814Z,99839.91
2023-05-15T18:32:29.797Z,99848.78
2023-05-15T18:35:32.095Z,99854.59
2023-05-15T18:38:34.003Z,99865.31
2023-05-15T18:41:35.851Z,99865.22
2023-05-15T18:44:37.757Z,99865.06
2023-05-15T18:47:40.090Z,99873.41
2023-05-15T18:50:42.165Z,99882.13
2023-05-15T18:53:44.111Z,99886.28
2023-05-15T18:56:46.221Z,99894.06
2023-05-15T18:59:48.205Z,99899.66
2023-05-15T19:02:50.362Z,99900.78
2023-05-15T19:05:52.569Z,99892.69
2023-05-15T19:08:54.500Z,99904.00
2023-05-15T19:11:56.422Z,99913.44
2023-05-15T19:14:58.809Z,99907.13
2023-05-15T19:18:00.942Z,99909.16
2023-05-15T19:21:03.038Z,99918.16
2023-05-15T19:24:08.099Z,99907.66
2023-05-15T19:27:09.997Z,99913.09
2023-05-15T19:30:12.154Z,99916.97
2023-05-15T19:33:15.704Z,99921.84
2023-05-15T19:36:18.731Z,99931.63
2023-05-15T19:39:20.693Z,99923.59
2023-05-15T19:42:26.258Z,99916.25
2023-05-15T19:45:29.600Z,99925.53
2023-05-15T19:48:31.638Z,99922.94
2023-05-15T19:51:34.475Z,99912.53
2023-05-15T19:54:36.354Z,99916.69
2023-05-15T19:57:40.181Z,99916.78
2023-05-15T20:00:42.078Z,99913.50
2023-05-15T20:03:44.457Z,99915.66
2023-05-15T20:06:46.463Z,99908.59
2023-05-15T20:09:48.424Z,99912.38
2023-05-15T20:12:50.415Z,99898.38
2023-05-15T20:15:56.944Z,99903.47
2023-05-15T20:18:59.978Z,99915.03
2023-05-15T20:22:02.036Z,99922.19
2023-05-15T20:25:04.025Z,99926.97
2023-05-15T20:28:06.186Z,99933.59
2023-05-15T20:31:08.083Z,99944.97
2023-05-15T20:34:10.126Z,99938.78
2023-05-15T20:37:13.355Z,99947.63
2023-05-15T20:40:15.906Z,99941.28
2023-05-15T20:43:17.823Z,99944.22
2023-05-15T20:46:21.624Z,99951.44
2023-05-15T20:49:23.660Z,99947.19
2023-05-15T20:52:25.579Z,99956.78
2023-05-15T20:55:27.633Z,99940.56
2023-05-15T20:58:29.572Z,99937.09
2023-05-15T21:01:31.588Z,99944.47
2023-05-15T21:04:33.728Z,99941.28
2023-05-15T21:07:35.973Z,99929.94
2023-05-15T21:10:38.032Z,99934.91
2023-05-15T21:13:39.969Z,99945.69
2023-05-15T21:16:41.981Z,99947.25
2023-05-15T21:19:43.917Z,99949.28
2023-05-15T21:22:45.916Z,99954.38
2023-05-15T21:25:47.798Z,99945.16
2023-05-15T21:28:49.796Z,99946.69
2023-05-15T21:31:51.748Z,99948.53
2023-05-15T21:34:53.723Z,99957.47
2023-05-15T21:37:55.771Z,99957.66
2023-05-15T21:40:57.923Z,99955.84
2023-05-15T21:43:59.756Z,99942.13
2023-05-15T21:47:01.738Z,99946.13
2023-05-15T21:50:03.980Z,99945.69
2023-05-15T21:53:06.014Z,99960.19
2023-05-15T21:56:08.542Z,99958.50
2023-05-15T21:59:11.432Z,99965.56
2023-05-15T22:02:13.537Z,99978.66
2023-05-15T22:05:16.139Z,99978.06
2023-05-15T22:08:18.470Z,99973.34
2023-05-15T22:11:20.787Z,99981.47
2023-05-15T22:14:23.026Z,99990.62
2023-05-15T22:17:27.160Z,99989.47
2023-05-15T22:20:29.255Z,100004.34
2023-05-15T22:23:32.294Z,100002.81
2023-05-15T22:26:34.606Z,100014.81
2023-05-15T22:29:36.459Z,100016.28
2023-05-15T22:32:38.570Z,100023.97
2023-05-15T22:35:40.509Z,100017.28
2023-05-15T22:38:52.798Z,100011.00
2023-05-15T22:41:54.731Z,100014.44
2023-05-15T22:45:01.611Z,100012.88
2023-05-15T22:48:03.870Z,100004.56
2023-05-15T22:51:11.582Z,100001.84
2023-05-15T22:54:13.583Z,100004.75
2023-05-15T22:57:18.538Z,99990.28
2023-05-15T23:00:20.508Z,99994.13
2023-05-15T23:03:24.352Z,99995.28
2023-05-15T23:06:26.471Z,99982.28
2023-05-15T23:09:28.405Z,99981.22
2023-05-15T23:12:30.922Z,99976.75
2023-05-15T23:15:32.957Z,99986.37
2023-05-15T23:18:35.273Z,99981.31
2023-05-15T23:21:37.967Z,99973.75
2023-05-15T23:24:39.926Z,99966.59
2023-05-15T23:27:41.942Z,99970.66
2023-05-15T23:30:43.946Z,99965.75
2023-05-15T23:33:48.084Z,99967.53
2023-05-15T23:36:50.353Z,99973.09
2023-05-15T23:39:55.258Z,99975.12
2023-05-15T23:42:57.157Z,99962.56
2023-05-15T23:45:59.073Z,99963.31
2023-05-15T23:49:01.111Z,99952.78
2023-05-15T23:52:02.976Z,99951.19
2023-05-15T23:55:05.229Z,99948.34
2023-05-15T23:58:07.226Z,99945.59
